sensor_id;sensor_type;location;lat;lon;timestamp;P1;durP1;ratioP1;P2;durP2;ratioP2
4915;SDS011;70796;52.406;13.230;2023-11-21T00:01:10;4.30;;;2.60;;
4915;SDS011;70796;52.406;13.230;2023-11-21T00:03:38;4.77;;;2.60;;
4915;SDS011;70796;52.406;13.230;2023-11-21T00:06:04;5.80;;;2.47;;
4915;SDS011;70796;52.406;13.230;2023-11-21T00:08:30;3.97;;;2.50;;
4915;SDS011;70796;52.406;13.230;2023-11-21T00:10:56;6.77;;;2.03;;
4915;SDS011;70796;52.406;13.230;2023-11-21T00:13:23;6.23;;;2.13;;
4915;SDS011;70796;52.406;13.230;2023-11-21T00:15:49;2.17;;;1.97;;
4915;SDS011;70796;52.406;13.230;2023-11-21T00:18:15;3.07;;;2.00;;
4915;SDS011;70796;52.406;13.230;2023-11-21T00:20:42;2.73;;;2.40;;
4915;SDS011;70796;52.406;13.230;2023-11-21T00:23:08;2.80;;;2.60;;
4915;SDS011;70796;52.406;13.230;2023-11-21T00:25:37;2.50;;;2.30;;
4915;SDS011;70796;52.406;13.230;2023-11-21T00:28:03;3.97;;;2.87;;
4915;SDS011;70796;52.406;13.230;2023-11-21T00:30:30;5.80;;;3.73;;
4915;SDS011;70796;52.406;13.230;2023-11-21T00:32:57;4.83;;;4.33;;
4915;SDS011;70796;52.406;13.230;2023-11-21T00:35:24;4.23;;;3.57;;
4915;SDS011;70796;52.406;13.230;2023-11-21T00:37:50;8.23;;;5.50;;
4915;SDS011;70796;52.406;13.230;2023-11-21T00:40:16;6.10;;;5.40;;
4915;SDS011;70796;52.406;13.230;2023-11-21T00:42:47;9.33;;;7.27;;
4915;SDS011;70796;52.406;13.230;2023-11-21T00:45:13;14.67;;;9.73;;
4915;SDS011;70796;52.406;13.230;2023-11-21T00:47:40;25.50;;;13.17;;
4915;SDS011;70796;52.406;13.230;2023-11-21T00:50:06;22.23;;;14.50;;
4915;SDS011;70796;52.406;13.230;2023-11-21T00:52:33;22.73;;;13.73;;
4915;SDS011;70796;52.406;13.230;2023-11-21T00:55:00;26.30;;;14.73;;
4915;SDS011;70796;52.406;13.230;2023-11-21T00:57:26;32.20;;;16.03;;
4915;SDS011;70796;52.406;13.230;2023-11-21T00:59:52;28.60;;;15.67;;
4915;SDS011;70796;52.406;13.230;2023-11-21T01:02:19;30.93;;;16.77;;
4915;SDS011;70796;52.406;13.230;2023-11-21T01:04:46;35.07;;;18.87;;
4915;SDS011;70796;52.406;13.230;2023-11-21T01:07:14;37.70;;;17.80;;
4915;SDS011;70796;52.406;13.230;2023-11-21T01:09:40;34.90;;;18.07;;
4915;SDS011;70796;52.406;13.230;2023-11-21T01:12:06;33.50;;;18.40;;
4915;SDS011;70796;52.406;13.230;2023-11-21T01:14:33;37.30;;;19.27;;
4915;SDS011;70796;52.406;13.230;2023-11-21T01:16:59;47.17;;;20.47;;
4915;SDS011;70796;52.406;13.230;2023-11-21T01:19:26;56.23;;;22.83;;
4915;SDS011;70796;52.406;13.230;2023-11-21T01:21:52;50.47;;;22.43;;
4915;SDS011;70796;52.406;13.230;2023-11-21T01:24:19;62.93;;;23.30;;
4915;SDS011;70796;52.406;13.230;2023-11-21T01:26:45;53.10;;;21.27;;
4915;SDS011;70796;52.406;13.230;2023-11-21T01:29:13;60.53;;;22.20;;
4915;SDS011;70796;52.406;13.230;2023-11-21T01:31:39;58.20;;;22.93;;
4915;SDS011;70796;52.406;13.230;2023-11-21T01:34:06;68.20;;;23.43;;
4915;SDS011;70796;52.406;13.230;2023-11-21T01:36:33;53.93;;;21.87;;
4915;SDS011;70796;52.406;13.230;2023-11-21T01:38:59;65.60;;;23.47;;
4915;SDS011;70796;52.406;13.230;2023-11-21T01:41:26;67.00;;;23.47;;
4915;SDS011;70796;52.406;13.230;2023-11-21T01:43:53;59.43;;;21.83;;
4915;SDS011;70796;52.406;13.230;2023-11-21T01:46:20;75.50;;;23.17;;
4915;SDS011;70796;52.406;13.230;2023-11-21T01:48:47;72.97;;;22.20;;
4915;SDS011;70796;52.406;13.230;2023-11-21T01:51:14;64.30;;;25.40;;
4915;SDS011;70796;52.406;13.230;2023-11-21T01:53:41;86.63;;;26.60;;
4915;SDS011;70796;52.406;13.230;2023-11-21T01:56:08;65.30;;;24.63;;
4915;SDS011;70796;52.406;13.230;2023-11-21T01:58:36;73.83;;;26.97;;
4915;SDS011;70796;52.406;13.230;2023-11-21T02:01:02;74.03;;;25.93;;
4915;SDS011;70796;52.406;13.230;2023-11-21T02:03:29;75.60;;;26.10;;
4915;SDS011;70796;52.406;13.230;2023-11-21T02:05:55;70.27;;;26.20;;
4915;SDS011;70796;52.406;13.230;2023-11-21T02:08:21;64.23;;;23.53;;
4915;SDS011;70796;52.406;13.230;2023-11-21T02:10:48;79.67;;;26.50;;
4915;SDS011;70796;52.406;13.230;2023-11-21T02:13:14;66.63;;;24.20;;
4915;SDS011;70796;52.406;13.230;2023-11-21T02:15:41;65.53;;;24.20;;
4915;SDS011;70796;52.406;13.230;2023-11-21T02:18:07;72.07;;;23.70;;
4915;SDS011;70796;52.406;13.230;2023-11-21T02:20:36;72.77;;;24.30;;
4915;SDS011;70796;52.406;13.230;2023-11-21T02:23:04;61.80;;;22.97;;
4915;SDS011;70796;52.406;13.230;2023-11-21T02:25:32;63.87;;;22.30;;
4915;SDS011;70796;52.406;13.230;2023-11-21T02:28:00;79.40;;;22.87;;
4915;SDS011;70796;52.406;13.230;2023-11-21T02:30:28;69.57;;;22.77;;
4915;SDS011;70796;52.406;13.230;2023-11-21T02:32:56;68.33;;;21.67;;
4915;SDS011;70796;52.406;13.230;2023-11-21T02:35:24;56.87;;;21.13;;
4915;SDS011;70796;52.406;13.230;2023-11-21T02:37:52;65.30;;;22.70;;
4915;SDS011;70796;52.406;13.230;2023-11-21T02:40:19;69.83;;;21.40;;
4915;SDS011;70796;52.406;13.230;2023-11-21T02:42:47;59.47;;;20.70;;
4915;SDS011;70796;52.406;13.230;2023-11-21T02:45:14;58.57;;;21.13;;
4915;SDS011;70796;52.406;13.230;2023-11-21T02:47:43;68.57;;;21.50;;
4915;SDS011;70796;52.406;13.230;2023-11-21T02:50:10;72.73;;;23.60;;
4915;SDS011;70796;52.406;13.230;2023-11-21T02:52:36;60.67;;;18.77;;
4915;SDS011;70796;52.406;13.230;2023-11-21T02:55:03;53.20;;;20.03;;
4915;SDS011;70796;52.406;13.230;2023-11-21T02:57:30;57.00;;;19.77;;
4915;SDS011;70796;52.406;13.230;2023-11-21T02:59:56;55.40;;;18.80;;
4915;SDS011;70796;52.406;13.230;2023-11-21T03:02:23;45.40;;;17.17;;
4915;SDS011;70796;52.406;13.230;2023-11-21T03:04:49;43.20;;;16.23;;
4915;SDS011;70796;52.406;13.230;2023-11-21T03:07:15;43.70;;;16.13;;
4915;SDS011;70796;52.406;13.230;2023-11-21T03:09:42;42.13;;;16.67;;
4915;SDS011;70796;52.406;13.230;2023-11-21T03:12:09;35.97;;;14.17;;
4915;SDS011;70796;52.406;13.230;2023-11-21T03:14:35;38.13;;;14.77;;
4915;SDS011;70796;52.406;13.230;2023-11-21T03:17:02;28.17;;;12.00;;
4915;SDS011;70796;52.406;13.230;2023-11-21T03:19:31;28.93;;;12.47;;
4915;SDS011;70796;52.406;13.230;2023-11-21T03:21:57;23.43;;;11.77;;
4915;SDS011;70796;52.406;13.230;2023-11-21T03:24:24;28.67;;;11.40;;
4915;SDS011;70796;52.406;13.230;2023-11-21T03:26:50;23.20;;;9.97;;
4915;SDS011;70796;52.406;13.230;2023-11-21T03:29:17;24.93;;;13.00;;
4915;SDS011;70796;52.406;13.230;2023-11-21T03:31:43;22.80;;;12.60;;
4915;SDS011;70796;52.406;13.230;2023-11-21T03:34:14;26.90;;;12.40;;
4915;SDS011;70796;52.406;13.230;2023-11-21T03:36:41;25.23;;;12.90;;
4915;SDS011;70796;52.406;13.230;2023-11-21T03:39:07;26.77;;;13.37;;
4915;SDS011;70796;52.406;13.230;2023-11-21T03:41:34;23.33;;;12.23;;
4915;SDS011;70796;52.406;13.230;2023-11-21T03:44:01;31.93;;;14.67;;
4915;SDS011;70796;52.406;13.230;2023-11-21T03:46:27;22.60;;;13.40;;
4915;SDS011;70796;52.406;13.230;2023-11-21T03:48:53;23.93;;;13.53;;
4915;SDS011;70796;52.406;13.230;2023-11-21T03:51:21;24.73;;;12.90;;
4915;SDS011;70796;52.406;13.230;2023-11-21T03:53:47;22.90;;;12.47;;
4915;SDS011;70796;52.406;13.230;2023-11-21T03:56:14;23.90;;;13.57;;
4915;SDS011;70796;52.406;13.230;2023-11-21T03:58:40;21.27;;;13.83;;
4915;SDS011;70796;52.406;13.230;2023-11-21T04:01:07;23.53;;;13.07;;
4915;SDS011;70796;52.406;13.230;2023-11-21T04:03:33;19.97;;;13.13;;
4915;SDS011;70796;52.406;13.230;2023-11-21T04:06:00;21.97;;;13.50;;
4915;SDS011;70796;52.406;13.230;2023-11-21T04:08:27;21.23;;;13.90;;
4915;SDS011;70796;52.406;13.230;2023-11-21T04:10:54;21.47;;;13.70;;
4915;SDS011;70796;52.406;13.230;2023-11-21T04:13:21;23.43;;;13.10;;
4915;SDS011;70796;52.406;13.230;2023-11-21T04:15:48;22.63;;;13.30;;
4915;SDS011;70796;52.406;13.230;2023-11-21T04:18:14;20.70;;;12.30;;
4915;SDS011;70796;52.406;13.230;2023-11-21T04:20:41;21.70;;;13.30;;
4915;SDS011;70796;52.406;13.230;2023-11-21T04:23:07;21.40;;;14.33;;
4915;SDS011;70796;52.406;13.230;2023-11-21T04:25:35;23.00;;;13.60;;
4915;SDS011;70796;52.406;13.230;2023-11-21T04:28:01;18.90;;;12.77;;
4915;SDS011;70796;52.406;13.230;2023-11-21T04:30:27;22.10;;;13.93;;
4915;SDS011;70796;52.406;13.230;2023-11-21T04:32:53;21.00;;;13.83;;
4915;SDS011;70796;52.406;13.230;2023-11-21T04:35:19;28.40;;;14.00;;
4915;SDS011;70796;52.406;13.230;2023-11-21T04:37:46;22.23;;;13.73;;
4915;SDS011;70796;52.406;13.230;2023-11-21T04:40:13;22.50;;;14.53;;
4915;SDS011;70796;52.406;13.230;2023-11-21T04:42:39;20.37;;;14.17;;
4915;SDS011;70796;52.406;13.230;2023-11-21T04:45:05;23.53;;;14.03;;
4915;SDS011;70796;52.406;13.230;2023-11-21T04:47:35;20.70;;;13.70;;
4915;SDS011;70796;52.406;13.230;2023-11-21T04:50:02;21.37;;;13.63;;
4915;SDS011;70796;52.406;13.230;2023-11-21T04:52:29;20.20;;;13.87;;
4915;SDS011;70796;52.406;13.230;2023-11-21T04:54:55;20.60;;;12.30;;
4915;SDS011;70796;52.406;13.230;2023-11-21T04:57:24;20.80;;;13.10;;
4915;SDS011;70796;52.406;13.230;2023-11-21T04:59:50;20.17;;;11.70;;
4915;SDS011;70796;52.406;13.230;2023-11-21T05:02:17;15.97;;;10.30;;
4915;SDS011;70796;52.406;13.230;2023-11-21T05:05:01;14.00;;;10.43;;
4915;SDS011;70796;52.406;13.230;2023-11-21T05:07:28;16.33;;;11.93;;
4915;SDS011;70796;52.406;13.230;2023-11-21T05:09:57;19.57;;;11.87;;
4915;SDS011;70796;52.406;13.230;2023-11-21T05:12:24;14.87;;;9.47;;
4915;SDS011;70796;52.406;13.230;2023-11-21T05:14:51;14.60;;;10.37;;
4915;SDS011;70796;52.406;13.230;2023-11-21T05:17:17;14.67;;;10.30;;
4915;SDS011;70796;52.406;13.230;2023-11-21T05:19:44;14.30;;;10.23;;
4915;SDS011;70796;52.406;13.230;2023-11-21T05:22:15;16.70;;;11.13;;
4915;SDS011;70796;52.406;13.230;2023-11-21T05:24:41;16.80;;;10.40;;
4915;SDS011;70796;52.406;13.230;2023-11-21T05:27:07;22.73;;;12.37;;
4915;SDS011;70796;52.406;13.230;2023-11-21T05:29:35;15.30;;;9.80;;
4915;SDS011;70796;52.406;13.230;2023-11-21T05:32:03;14.80;;;10.17;;
4915;SDS011;70796;52.406;13.230;2023-11-21T05:34:30;14.50;;;9.80;;
4915;SDS011;70796;52.406;13.230;2023-11-21T05:36:57;12.57;;;8.60;;
4915;SDS011;70796;52.406;13.230;2023-11-21T05:39:25;13.37;;;9.17;;
4915;SDS011;70796;52.406;13.230;2023-11-21T05:41:51;12.50;;;9.17;;
4915;SDS011;70796;52.406;13.230;2023-11-21T05:44:17;11.63;;;8.80;;
4915;SDS011;70796;52.406;13.230;2023-11-21T05:46:44;13.10;;;8.20;;
4915;SDS011;70796;52.406;13.230;2023-11-21T05:49:10;12.60;;;8.47;;
4915;SDS011;70796;52.406;13.230;2023-11-21T05:51:36;11.77;;;8.23;;
4915;SDS011;70796;52.406;13.230;2023-11-21T05:54:03;12.30;;;9.07;;
4915;SDS011;70796;52.406;13.230;2023-11-21T05:56:29;11.20;;;8.10;;
4915;SDS011;70796;52.406;13.230;2023-11-21T05:58:55;14.40;;;9.10;;
4915;SDS011;70796;52.406;13.230;2023-11-21T06:01:21;11.17;;;8.10;;
4915;SDS011;70796;52.406;13.230;2023-11-21T06:03:48;13.17;;;7.80;;
4915;SDS011;70796;52.406;13.230;2023-11-21T06:06:15;13.40;;;9.90;;
4915;SDS011;70796;52.406;13.230;2023-11-21T06:08:41;11.93;;;8.70;;
4915;SDS011;70796;52.406;13.230;2023-11-21T06:11:09;14.20;;;8.63;;
4915;SDS011;70796;52.406;13.230;2023-11-21T06:13:37;12.17;;;8.40;;
4915;SDS011;70796;52.406;13.230;2023-11-21T06:16:04;14.93;;;10.77;;
4915;SDS011;70796;52.406;13.230;2023-11-21T06:18:30;14.10;;;9.47;;
4915;SDS011;70796;52.406;13.230;2023-11-21T06:20:57;15.20;;;9.63;;
4915;SDS011;70796;52.406;13.230;2023-11-21T06:23:24;15.77;;;9.83;;
4915;SDS011;70796;52.406;13.230;2023-11-21T06:25:50;16.23;;;9.97;;
4915;SDS011;70796;52.406;13.230;2023-11-21T06:28:16;13.97;;;9.27;;
4915;SDS011;70796;52.406;13.230;2023-11-21T06:30:44;15.03;;;9.37;;
4915;SDS011;70796;52.406;13.230;2023-11-21T06:33:15;13.77;;;9.70;;
4915;SDS011;70796;52.406;13.230;2023-11-21T06:35:42;12.47;;;8.63;;
4915;SDS011;70796;52.406;13.230;2023-11-21T06:38:08;12.80;;;9.30;;
4915;SDS011;70796;52.406;13.230;2023-11-21T06:40:35;13.17;;;9.37;;
4915;SDS011;70796;52.406;13.230;2023-11-21T06:43:01;12.67;;;8.80;;
4915;SDS011;70796;52.406;13.230;2023-11-21T06:45:28;12.33;;;8.10;;
4915;SDS011;70796;52.406;13.230;2023-11-21T06:47:54;16.20;;;8.47;;
4915;SDS011;70796;52.406;13.230;2023-11-21T06:50:20;15.00;;;9.17;;
4915;SDS011;70796;52.406;13.230;2023-11-21T06:52:47;11.33;;;8.27;;
4915;SDS011;70796;52.406;13.230;2023-11-21T06:55:14;11.40;;;7.73;;
4915;SDS011;70796;52.406;13.230;2023-11-21T06:57:46;9.20;;;7.30;;
4915;SDS011;70796;52.406;13.230;2023-11-21T07:00:13;11.83;;;7.70;;
4915;SDS011;70796;52.406;13.230;2023-11-21T07:02:42;12.13;;;7.00;;
4915;SDS011;70796;52.406;13.230;2023-11-21T07:05:09;11.03;;;7.00;;
4915;SDS011;70796;52.406;13.230;2023-11-21T07:07:35;12.33;;;7.20;;
4915;SDS011;70796;52.406;13.230;2023-11-21T07:10:03;11.83;;;6.97;;
4915;SDS011;70796;52.406;13.230;2023-11-21T07:12:32;10.70;;;6.73;;
4915;SDS011;70796;52.406;13.230;2023-11-21T07:15:00;11.23;;;7.50;;
4915;SDS011;70796;52.406;13.230;2023-11-21T07:17:28;10.43;;;6.93;;
4915;SDS011;70796;52.406;13.230;2023-11-21T07:19:54;7.60;;;5.70;;
4915;SDS011;70796;52.406;13.230;2023-11-21T07:22:21;8.83;;;6.27;;
4915;SDS011;70796;52.406;13.230;2023-11-21T07:24:49;8.97;;;6.30;;
4915;SDS011;70796;52.406;13.230;2023-11-21T07:27:18;8.50;;;6.50;;
4915;SDS011;70796;52.406;13.230;2023-11-21T07:29:45;10.03;;;6.87;;
4915;SDS011;70796;52.406;13.230;2023-11-21T07:32:11;7.10;;;5.30;;
4915;SDS011;70796;52.406;13.230;2023-11-21T07:34:39;10.10;;;5.60;;
4915;SDS011;70796;52.406;13.230;2023-11-21T07:37:05;6.60;;;5.03;;
4915;SDS011;70796;52.406;13.230;2023-11-21T07:39:31;7.53;;;5.50;;
4915;SDS011;70796;52.406;13.230;2023-11-21T07:41:57;7.30;;;5.40;;
4915;SDS011;70796;52.406;13.230;2023-11-21T07:44:24;7.27;;;5.03;;
4915;SDS011;70796;52.406;13.230;2023-11-21T07:46:50;6.47;;;4.90;;
4915;SDS011;70796;52.406;13.230;2023-11-21T07:49:17;6.13;;;4.50;;
4915;SDS011;70796;52.406;13.230;2023-11-21T07:51:47;6.20;;;5.13;;
4915;SDS011;70796;52.406;13.230;2023-11-21T07:54:14;9.87;;;4.80;;
4915;SDS011;70796;52.406;13.230;2023-11-21T07:56:43;6.80;;;4.77;;
4915;SDS011;70796;52.406;13.230;2023-11-21T07:59:09;5.93;;;4.63;;
4915;SDS011;70796;52.406;13.230;2023-11-21T08:01:36;5.70;;;4.70;;
4915;SDS011;70796;52.406;13.230;2023-11-21T08:04:03;9.73;;;5.27;;
4915;SDS011;70796;52.406;13.230;2023-11-21T08:06:30;7.93;;;5.47;;
4915;SDS011;70796;52.406;13.230;2023-11-21T08:08:57;7.30;;;5.50;;
4915;SDS011;70796;52.406;13.230;2023-11-21T08:11:24;7.97;;;5.40;;
4915;SDS011;70796;52.406;13.230;2023-11-21T08:13:50;8.17;;;5.33;;
4915;SDS011;70796;52.406;13.230;2023-11-21T08:16:17;7.53;;;6.17;;
4915;SDS011;70796;52.406;13.230;2023-11-21T08:18:43;9.57;;;6.03;;
4915;SDS011;70796;52.406;13.230;2023-11-21T08:21:11;6.90;;;4.97;;
4915;SDS011;70796;52.406;13.230;2023-11-21T08:23:38;8.63;;;4.63;;
4915;SDS011;70796;52.406;13.230;2023-11-21T08:26:04;6.17;;;5.50;;
4915;SDS011;70796;52.406;13.230;2023-11-21T08:28:31;9.33;;;4.90;;
4915;SDS011;70796;52.406;13.230;2023-11-21T08:30:58;6.70;;;4.87;;
4915;SDS011;70796;52.406;13.230;2023-11-21T08:33:26;5.87;;;4.87;;
4915;SDS011;70796;52.406;13.230;2023-11-21T08:35:52;7.40;;;4.90;;
4915;SDS011;70796;52.406;13.230;2023-11-21T08:38:18;6.00;;;4.70;;
4915;SDS011;70796;52.406;13.230;2023-11-21T08:40:45;12.17;;;5.10;;
4915;SDS011;70796;52.406;13.230;2023-11-21T08:43:12;7.80;;;5.20;;
4915;SDS011;70796;52.406;13.230;2023-11-21T08:45:40;6.20;;;5.00;;
4915;SDS011;70796;52.406;13.230;2023-11-21T08:48:06;7.40;;;5.10;;
4915;SDS011;70796;52.406;13.230;2023-11-21T08:50:32;11.17;;;5.50;;
4915;SDS011;70796;52.406;13.230;2023-11-21T08:53:01;7.87;;;5.43;;
4915;SDS011;70796;52.406;13.230;2023-11-21T08:55:27;6.20;;;5.50;;
4915;SDS011;70796;52.406;13.230;2023-11-21T08:57:56;6.77;;;5.20;;
4915;SDS011;70796;52.406;13.230;2023-11-21T09:00:27;7.47;;;5.70;;
4915;SDS011;70796;52.406;13.230;2023-11-21T09:02:53;10.27;;;5.80;;
4915;SDS011;70796;52.406;13.230;2023-11-21T09:05:19;7.87;;;5.10;;
4915;SDS011;70796;52.406;13.230;2023-11-21T09:07:47;8.93;;;5.93;;
4915;SDS011;70796;52.406;13.230;2023-11-21T09:10:15;7.57;;;6.10;;
4915;SDS011;70796;52.406;13.230;2023-11-21T09:12:42;6.57;;;5.63;;
4915;SDS011;70796;52.406;13.230;2023-11-21T09:15:09;8.13;;;5.37;;
4915;SDS011;70796;52.406;13.230;2023-11-21T09:17:39;7.23;;;5.80;;
4915;SDS011;70796;52.406;13.230;2023-11-21T09:20:07;7.43;;;5.70;;
4915;SDS011;70796;52.406;13.230;2023-11-21T09:22:36;7.67;;;5.53;;
4915;SDS011;70796;52.406;13.230;2023-11-21T09:25:02;10.60;;;6.00;;
4915;SDS011;70796;52.406;13.230;2023-11-21T09:27:31;9.47;;;4.93;;
4915;SDS011;70796;52.406;13.230;2023-11-21T09:29:57;8.60;;;5.93;;
4915;SDS011;70796;52.406;13.230;2023-11-21T09:32:24;6.93;;;5.10;;
4915;SDS011;70796;52.406;13.230;2023-11-21T09:34:50;7.77;;;5.23;;
4915;SDS011;70796;52.406;13.230;2023-11-21T09:37:16;8.60;;;5.87;;
4915;SDS011;70796;52.406;13.230;2023-11-21T09:39:44;9.13;;;4.70;;
4915;SDS011;70796;52.406;13.230;2023-11-21T09:42:19;5.57;;;4.90;;
4915;SDS011;70796;52.406;13.230;2023-11-21T09:44:52;7.73;;;4.43;;
4915;SDS011;70796;52.406;13.230;2023-11-21T09:47:24;7.93;;;5.10;;
4915;SDS011;70796;52.406;13.230;2023-11-21T09:49:50;7.23;;;5.03;;
4915;SDS011;70796;52.406;13.230;2023-11-21T09:52:26;5.60;;;4.57;;
4915;SDS011;70796;52.406;13.230;2023-11-21T09:54:53;7.33;;;3.97;;
4915;SDS011;70796;52.406;13.230;2023-11-21T09:57:23;7.17;;;4.50;;
4915;SDS011;70796;52.406;13.230;2023-11-21T09:59:52;8.70;;;3.90;;
4915;SDS011;70796;52.406;13.230;2023-11-21T10:02:27;5.07;;;4.17;;
4915;SDS011;70796;52.406;13.230;2023-11-21T10:04:59;6.23;;;4.63;;
4915;SDS011;70796;52.406;13.230;2023-11-21T10:07:26;6.80;;;4.27;;
4915;SDS011;70796;52.406;13.230;2023-11-21T10:09:57;7.27;;;4.57;;
4915;SDS011;70796;52.406;13.230;2023-11-21T10:12:23;4.53;;;3.87;;
4915;SDS011;70796;52.406;13.230;2023-11-21T10:14:50;7.03;;;4.80;;
4915;SDS011;70796;52.406;13.230;2023-11-21T10:17:18;7.20;;;4.80;;
4915;SDS011;70796;52.406;13.230;2023-11-21T10:19:47;7.53;;;4.90;;
4915;SDS011;70796;52.406;13.230;2023-11-21T10:22:14;7.70;;;5.23;;
4915;SDS011;70796;52.406;13.230;2023-11-21T10:24:41;13.00;;;5.50;;
4915;SDS011;70796;52.406;13.230;2023-11-21T10:27:19;9.67;;;5.37;;
4915;SDS011;70796;52.406;13.230;2023-11-21T10:29:45;10.87;;;5.53;;
4915;SDS011;70796;52.406;13.230;2023-11-21T10:32:11;11.50;;;6.80;;
4915;SDS011;70796;52.406;13.230;2023-11-21T10:34:39;14.83;;;6.40;;
4915;SDS011;70796;52.406;13.230;2023-11-21T10:37:10;17.87;;;6.67;;
4915;SDS011;70796;52.406;13.230;2023-11-21T10:39:38;15.77;;;6.80;;
4915;SDS011;70796;52.406;13.230;2023-11-21T10:42:07;18.77;;;6.60;;
4915;SDS011;70796;52.406;13.230;2023-11-21T10:44:35;16.63;;;7.10;;
4915;SDS011;70796;52.406;13.230;2023-11-21T10:47:02;17.60;;;7.33;;
4915;SDS011;70796;52.406;13.230;2023-11-21T10:49:28;13.83;;;7.00;;
4915;SDS011;70796;52.406;13.230;2023-11-21T10:51:56;15.57;;;7.77;;
4915;SDS011;70796;52.406;13.230;2023-11-21T10:54:23;14.40;;;7.43;;
4915;SDS011;70796;52.406;13.230;2023-11-21T10:56:50;13.60;;;7.20;;
4915;SDS011;70796;52.406;13.230;2023-11-21T10:59:20;15.50;;;6.93;;
4915;SDS011;70796;52.406;13.230;2023-11-21T11:01:51;14.53;;;7.00;;
4915;SDS011;70796;52.406;13.230;2023-11-21T11:04:19;17.70;;;7.97;;
4915;SDS011;70796;52.406;13.230;2023-11-21T11:06:48;13.93;;;6.97;;
4915;SDS011;70796;52.406;13.230;2023-11-21T11:09:18;15.87;;;7.20;;
4915;SDS011;70796;52.406;13.230;2023-11-21T11:11:44;12.20;;;5.93;;
4915;SDS011;70796;52.406;13.230;2023-11-21T11:14:11;15.50;;;5.87;;
4915;SDS011;70796;52.406;13.230;2023-11-21T11:16:39;9.70;;;5.90;;
4915;SDS011;70796;52.406;13.230;2023-11-21T11:19:12;7.00;;;4.70;;
4915;SDS011;70796;52.406;13.230;2023-11-21T11:27:05;9.73;;;6.07;;
4915;SDS011;70796;52.406;13.230;2023-11-21T11:29:36;9.00;;;5.40;;
4915;SDS011;70796;52.406;13.230;2023-11-21T11:32:13;9.80;;;6.33;;
4915;SDS011;70796;52.406;13.230;2023-11-21T11:34:54;7.20;;;5.23;;
4915;SDS011;70796;52.406;13.230;2023-11-21T11:37:23;12.90;;;6.50;;
4915;SDS011;70796;52.406;13.230;2023-11-21T11:39:50;11.47;;;7.50;;
4915;SDS011;70796;52.406;13.230;2023-11-21T11:42:17;13.67;;;7.20;;
4915;SDS011;70796;52.406;13.230;2023-11-21T11:47:15;13.10;;;8.00;;
4915;SDS011;70796;52.406;13.230;2023-11-21T11:50:04;12.40;;;7.00;;
4915;SDS011;70796;52.406;13.230;2023-11-21T11:52:41;14.87;;;7.27;;
4915;SDS011;70796;52.406;13.230;2023-11-21T11:55:08;11.70;;;7.13;;
4915;SDS011;70796;52.406;13.230;2023-11-21T11:57:41;11.40;;;6.90;;
4915;SDS011;70796;52.406;13.230;2023-11-21T12:00:15;11.10;;;6.67;;
4915;SDS011;70796;52.406;13.230;2023-11-21T12:02:47;10.17;;;5.90;;
4915;SDS011;70796;52.406;13.230;2023-11-21T12:05:15;12.10;;;6.10;;
4915;SDS011;70796;52.406;13.230;2023-11-21T12:07:46;7.20;;;5.10;;
4915;SDS011;70796;52.406;13.230;2023-11-21T12:10:14;9.50;;;5.80;;
4915;SDS011;70796;52.406;13.230;2023-11-21T12:12:44;8.00;;;4.93;;
4915;SDS011;70796;52.406;13.230;2023-11-21T12:15:11;8.80;;;5.50;;
4915;SDS011;70796;52.406;13.230;2023-11-21T12:17:37;17.70;;;5.40;;
4915;SDS011;70796;52.406;13.230;2023-11-21T12:20:04;7.73;;;5.00;;
4915;SDS011;70796;52.406;13.230;2023-11-21T12:22:31;9.60;;;5.63;;
4915;SDS011;70796;52.406;13.230;2023-11-21T12:24:57;6.33;;;4.90;;
4915;SDS011;70796;52.406;13.230;2023-11-21T12:27:26;7.37;;;5.53;;
4915;SDS011;70796;52.406;13.230;2023-11-21T12:29:52;7.77;;;5.00;;
4915;SDS011;70796;52.406;13.230;2023-11-21T12:32:20;7.43;;;5.00;;
4915;SDS011;70796;52.406;13.230;2023-11-21T12:34:47;6.73;;;4.80;;
4915;SDS011;70796;52.406;13.230;2023-11-21T12:37:14;7.17;;;5.10;;
4915;SDS011;70796;52.406;13.230;2023-11-21T12:39:40;8.03;;;5.33;;
4915;SDS011;70796;52.406;13.230;2023-11-21T12:42:06;6.63;;;4.90;;
4915;SDS011;70796;52.406;13.230;2023-11-21T12:44:33;11.47;;;5.60;;
4915;SDS011;70796;52.406;13.230;2023-11-21T12:47:03;7.27;;;4.97;;
4915;SDS011;70796;52.406;13.230;2023-11-21T12:49:29;9.70;;;6.00;;
4915;SDS011;70796;52.406;13.230;2023-11-21T12:51:58;6.80;;;4.47;;
4915;SDS011;70796;52.406;13.230;2023-11-21T12:54:24;9.67;;;5.50;;
4915;SDS011;70796;52.406;13.230;2023-11-21T12:56:51;6.93;;;5.40;;
4915;SDS011;70796;52.406;13.230;2023-11-21T12:59:20;7.67;;;5.57;;
4915;SDS011;70796;52.406;13.230;2023-11-21T13:01:46;8.83;;;5.57;;
4915;SDS011;70796;52.406;13.230;2023-11-21T13:04:13;8.77;;;5.20;;
4915;SDS011;70796;52.406;13.230;2023-11-21T13:06:40;9.50;;;5.20;;
4915;SDS011;70796;52.406;13.230;2023-11-21T13:09:07;5.73;;;4.43;;
4915;SDS011;70796;52.406;13.230;2023-11-21T13:11:37;6.20;;;4.23;;
4915;SDS011;70796;52.406;13.230;2023-11-21T13:14:03;5.87;;;4.83;;
4915;SDS011;70796;52.406;13.230;2023-11-21T13:16:30;4.73;;;4.13;;
4915;SDS011;70796;52.406;13.230;2023-11-21T13:18:57;4.63;;;4.07;;
4915;SDS011;70796;52.406;13.230;2023-11-21T13:21:24;5.97;;;4.27;;
4915;SDS011;70796;52.406;13.230;2023-11-21T13:23:50;4.30;;;3.90;;
4915;SDS011;70796;52.406;13.230;2023-11-21T13:26:19;4.90;;;4.10;;
4915;SDS011;70796;52.406;13.230;2023-11-21T13:28:46;6.30;;;4.77;;
4915;SDS011;70796;52.406;13.230;2023-11-21T13:31:14;7.43;;;4.73;;
4915;SDS011;70796;52.406;13.230;2023-11-21T13:33:49;9.60;;;4.97;;
4915;SDS011;70796;52.406;13.230;2023-11-21T13:36:26;5.60;;;4.40;;
4915;SDS011;70796;52.406;13.230;2023-11-21T13:38:56;4.70;;;4.20;;
4915;SDS011;70796;52.406;13.230;2023-11-21T13:41:25;6.80;;;4.80;;
4915;SDS011;70796;52.406;13.230;2023-11-21T13:43:57;11.27;;;6.40;;
4915;SDS011;70796;52.406;13.230;2023-11-21T13:46:32;10.93;;;6.50;;
4915;SDS011;70796;52.406;13.230;2023-11-21T13:49:05;12.60;;;6.97;;
4915;SDS011;70796;52.406;13.230;2023-11-21T13:51:36;13.33;;;7.10;;
4915;SDS011;70796;52.406;13.230;2023-11-21T13:54:11;13.83;;;6.77;;
4915;SDS011;70796;52.406;13.230;2023-11-21T13:56:37;13.73;;;7.50;;
4915;SDS011;70796;52.406;13.230;2023-11-21T13:59:06;14.07;;;7.90;;
4915;SDS011;70796;52.406;13.230;2023-11-21T14:01:52;19.33;;;8.77;;
4915;SDS011;70796;52.406;13.230;2023-11-21T14:04:19;14.80;;;8.37;;
4915;SDS011;70796;52.406;13.230;2023-11-21T14:10:34;15.47;;;8.40;;
4915;SDS011;70796;52.406;13.230;2023-11-21T14:13:09;19.57;;;8.50;;
4915;SDS011;70796;52.406;13.230;2023-11-21T14:15:36;17.03;;;9.53;;
4915;SDS011;70796;52.406;13.230;2023-11-21T14:18:09;18.40;;;8.83;;
4915;SDS011;70796;52.406;13.230;2023-11-21T14:20:40;23.50;;;10.57;;
4915;SDS011;70796;52.406;13.230;2023-11-21T14:23:14;19.50;;;11.53;;
4915;SDS011;70796;52.406;13.230;2023-11-21T14:25:42;25.70;;;11.30;;
4915;SDS011;70796;52.406;13.230;2023-11-21T14:28:09;31.40;;;13.70;;
4915;SDS011;70796;52.406;13.230;2023-11-21T14:30:37;25.83;;;14.13;;
4915;SDS011;70796;52.406;13.230;2023-11-21T14:33:05;30.03;;;14.47;;
4915;SDS011;70796;52.406;13.230;2023-11-21T14:35:32;28.80;;;13.37;;
4915;SDS011;70796;52.406;13.230;2023-11-21T14:37:59;32.20;;;14.60;;
4915;SDS011;70796;52.406;13.230;2023-11-21T14:40:26;31.13;;;14.63;;
4915;SDS011;70796;52.406;13.230;2023-11-21T14:43:01;40.83;;;16.40;;
4915;SDS011;70796;52.406;13.230;2023-11-21T14:45:31;37.37;;;15.60;;
4915;SDS011;70796;52.406;13.230;2023-11-21T14:47:58;36.40;;;17.40;;
4915;SDS011;70796;52.406;13.230;2023-11-21T14:50:33;36.60;;;16.57;;